sensor_id;sensor_type;location;lat;lon;timestamp;pressure;altitude;pressure_sealevel;temperature;humidity
6567;BME280;3317;43.994;22.878;2023-07-28T00:02:01;100910.41;;;21.51;44.83
6567;BME280;3317;43.994;22.878;2023-07-28T00:04:29;100910.41;;;21.51;45.38
6567;BME280;3317;43.994;22.878;2023-07-28T00:06:56;100910.63;;;21.50;45.25
6567;BME280;3317;43.994;22.878;2023-07-28T00:09:23;100914.66;;;21.47;45.38
6567;BME280;3317;43.994;22.878;2023-07-28T00:11:50;100912.16;;;21.46;45.26
6567;BME280;3317;43.994;22.878;2023-07-28T00:14:17;100910.06;;;21.41;45.28
6567;BME280;3317;43.994;22.878;2023-07-28T00:16:44;100910.50;;;21.38;45.38
6567;BME280;3317;43.994;22.878;2023-07-28T00:19:11;100915.38;;;21.36;45.08
6567;BME280;3317;43.994;22.878;2023-07-28T00:21:39;100912.22;;;21.32;45.31
6567;BME280;3317;43.994;22.878;2023-07-28T00:24:06;100902.50;;;21.30;45.99
6567;BME280;3317;43.994;22.878;2023-07-28T00:26:33;100914.78;;;21.27;45.70
6567;BME280;3317;43.994;22.878;2023-07-28T00:29:00;100908.66;;;21.25;45.82
6567;BME280;3317;43.994;22.878;2023-07-28T00:31:27;100907.19;;;21.22;45.58
6567;BME280;3317;43.994;22.878;2023-07-28T00:33:53;100905.50;;;21.21;45.59
6567;BME280;3317;43.994;22.878;2023-07-28T00:36:20;100907.63;;;21.19;44.75
6567;BME280;3317;43.994;22.878;2023-07-28T00:38:49;100905.31;;;21.16;45.05
6567;BME280;3317;43.994;22.878;2023-07-28T00:41:16;100905.78;;;21.13;44.90
6567;BME280;3317;43.994;22.878;2023-07-28T00:43:43;100903.84;;;21.14;45.37
6567;BME280;3317;43.994;22.878;2023-07-28T00:46:10;100887.63;;;20.99;45.24
6567;BME280;3317;43.994;22.878;2023-07-28T00:48:37;100903.66;;;21.08;45.42
6567;BME280;3317;43.994;22.878;2023-07-28T00:51:05;100901.38;;;21.05;45.67
6567;BME280;3317;43.994;22.878;2023-07-28T00:53:32;100905.81;;;21.06;45.00
6567;BME280;3317;43.994;22.878;2023-07-28T00:56:02;100899.25;;;21.01;44.74
6567;BME280;3317;43.994;22.878;2023-07-28T00:58:30;100899.28;;;20.94;45.52
6567;BME280;3317;43.994;22.878;2023-07-28T01:00:57;100904.78;;;21.01;44.99
6567;BME280;3317;43.994;22.878;2023-07-28T01:03:24;100906.91;;;20.99;46.04
6567;BME280;3317;43.994;22.878;2023-07-28T01:05:57;100909.00;;;20.96;46.24
6567;BME280;3317;43.994;22.878;2023-07-28T01:08:30;100910.31;;;20.94;46.24
6567;BME280;3317;43.994;22.878;2023-07-28T01:10:59;100914.34;;;20.91;46.84
6567;BME280;3317;43.994;22.878;2023-07-28T01:13:27;100904.84;;;20.87;46.42
6567;BME280;3317;43.994;22.878;2023-07-28T01:15:54;100903.97;;;20.87;45.20
6567;BME280;3317;43.994;22.878;2023-07-28T01:18:23;100905.25;;;20.84;44.65
6567;BME280;3317;43.994;22.878;2023-07-28T01:20:51;100899.34;;;20.80;44.93
6567;BME280;3317;43.994;22.878;2023-07-28T01:23:32;100890.44;;;20.78;45.08
6567;BME280;3317;43.994;22.878;2023-07-28T01:26:06;100891.72;;;20.76;46.05
6567;BME280;3317;43.994;22.878;2023-07-28T01:28:36;100892.38;;;20.71;46.19
6567;BME280;3317;43.994;22.878;2023-07-28T01:31:05;100890.88;;;20.68;47.04
6567;BME280;3317;43.994;22.878;2023-07-28T01:33:32;100899.59;;;20.65;46.05
6567;BME280;3317;43.994;22.878;2023-07-28T01:35:59;100895.16;;;20.64;45.54
6567;BME280;3317;43.994;22.878;2023-07-28T01:38:27;100890.94;;;20.55;45.87
6567;BME280;3317;43.994;22.878;2023-07-28T01:40:54;100901.50;;;20.58;45.66
6567;BME280;3317;43.994;22.878;2023-07-28T01:43:21;100904.06;;;20.53;46.94
6567;BME280;3317;43.994;22.878;2023-07-28T01:45:49;100866.88;;;20.23;48.23
6567;BME280;3317;43.994;22.878;2023-07-28T01:48:16;100903.22;;;20.46;46.89
6567;BME280;3317;43.994;22.878;2023-07-28T01:50:43;100896.47;;;20.42;45.88
6567;BME280;3317;43.994;22.878;2023-07-28T01:53:10;100906.66;;;20.41;46.96
6567;BME280;3317;43.994;22.878;2023-07-28T01:55:37;100910.06;;;20.36;46.48
6567;BME280;3317;43.994;22.878;2023-07-28T01:58:04;100905.63;;;20.35;45.33
6567;BME280;3317;43.994;22.878;2023-07-28T02:00:31;100908.16;;;20.30;45.93
6567;BME280;3317;43.994;22.878;2023-07-28T02:02:59;100900.75;;;20.24;47.33
6567;BME280;3317;43.994;22.878;2023-07-28T02:05:27;100915.34;;;20.24;47.07
6567;BME280;3317;43.994;22.878;2023-07-28T02:07:54;100907.53;;;20.21;47.40
6567;BME280;3317;43.994;22.878;2023-07-28T02:10:22;100910.91;;;20.17;46.85
6567;BME280;3317;43.994;22.878;2023-07-28T02:12:50;100914.97;;;20.14;47.76
6567;BME280;3317;43.994;22.878;2023-07-28T02:15:17;100911.56;;;20.05;49.36
6567;BME280;3317;43.994;22.878;2023-07-28T02:17:44;100913.06;;;20.01;49.77
6567;BME280;3317;43.994;22.878;2023-07-28T02:20:13;100919.00;;;19.98;49.78
6567;BME280;3317;43.994;22.878;2023-07-28T02:22:41;100918.38;;;19.96;49.12
6567;BME280;3317;43.994;22.878;2023-07-28T02:25:08;100923.44;;;19.92;49.30
6567;BME280;3317;43.994;22.878;2023-07-28T02:27:35;100929.53;;;19.88;49.23
6567;BME280;3317;43.994;22.878;2023-07-28T02:30:03;100926.34;;;19.84;50.20
6567;BME280;3317;43.994;22.878;2023-07-28T02:32:30;100936.53;;;19.83;50.07
6567;BME280;3317;43.994;22.878;2023-07-28T02:34:57;100942.03;;;19.83;49.43
6567;BME280;3317;43.994;22.878;2023-07-28T02:37:25;100929.72;;;19.73;48.43
6567;BME280;3317;43.994;22.878;2023-07-28T02:39:52;100938.22;;;19.78;49.40
6567;BME280;3317;43.994;22.878;2023-07-28T02:42:19;100943.91;;;19.76;49.15
6567;BME280;3317;43.994;22.878;2023-07-28T02:44:46;100894.84;;;19.46;49.50
6567;BME280;3317;43.994;22.878;2023-07-28T02:47:13;100933.53;;;19.72;50.29
6567;BME280;3317;43.994;22.878;2023-07-28T02:49:41;100937.16;;;19.72;48.30
6567;BME280;3317;43.994;22.878;2023-07-28T02:52:07;100940.31;;;19.69;47.77
6567;BME280;3317;43.994;22.878;2023-07-28T02:54:36;100946.84;;;19.68;48.88
6567;BME280;3317;43.994;22.878;2023-07-28T02:57:03;100947.06;;;19.66;48.29
6567;BME280;3317;43.994;22.878;2023-07-28T02:59:30;100953.63;;;19.65;48.48
6567;BME280;3317;43.994;22.878;2023-07-28T03:01:57;100945.38;;;19.65;48.75
6567;BME280;3317;43.994;22.878;2023-07-28T03:04:24;100954.88;;;19.63;48.24
6567;BME280;3317;43.994;22.878;2023-07-28T03:06:51;100947.91;;;19.60;47.31
6567;BME280;3317;43.994;22.878;2023-07-28T03:09:17;100953.41;;;19.60;46.67
6567;BME280;3317;43.994;22.878;2023-07-28T03:11:46;100951.94;;;19.58;47.24
6567;BME280;3317;43.994;22.878;2023-07-28T03:14:13;100956.38;;;19.59;47.58
6567;BME280;3317;43.994;22.878;2023-07-28T03:16:41;100949.56;;;19.54;48.39
6567;BME280;3317;43.994;22.878;2023-07-28T03:19:07;100954.25;;;19.54;49.30
6567;BME280;3317;43.994;22.878;2023-07-28T03:21:34;100950.00;;;19.51;49.75
6567;BME280;3317;43.994;22.878;2023-07-28T03:24:01;100953.81;;;19.50;48.79
6567;BME280;3317;43.994;22.878;2023-07-28T03:26:28;100962.06;;;19.50;49.04
6567;BME280;3317;43.994;22.878;2023-07-28T03:28:57;100967.56;;;19.50;48.29
6567;BME280;3317;43.994;22.878;2023-07-28T03:31:24;100957.63;;;19.49;48.92
6567;BME280;3317;43.994;22.878;2023-07-28T03:33:51;100974.28;;;19.48;49.79
6567;BME280;3317;43.994;22.878;2023-07-28T03:36:18;100973.47;;;19.47;50.84
6567;BME280;3317;43.994;22.878;2023-07-28T03:38:45;100977.28;;;19.46;51.68
6567;BME280;3317;43.994;22.878;2023-07-28T03:41:12;100974.53;;;19.46;51.24
6567;BME280;3317;43.994;22.878;2023-07-28T03:43:40;100959.88;;;19.32;50.96
6567;BME280;3317;43.994;22.878;2023-07-28T03:46:08;100936.38;;;19.16;52.43
6567;BME280;3317;43.994;22.878;2023-07-28T03:48:35;100981.47;;;19.42;51.81
6567;BME280;3317;43.994;22.878;2023-07-28T03:51:02;100988.25;;;19.46;52.13
6567;BME280;3317;43.994;22.878;2023-07-28T03:53:29;100977.91;;;19.48;51.74
6567;BME280;3317;43.994;22.878;2023-07-28T03:55:56;100993.34;;;19.49;50.90
6567;BME280;3317;43.994;22.878;2023-07-28T03:58:24;100982.97;;;19.51;51.92
6567;BME280;3317;43.994;22.878;2023-07-28T04:00:51;100989.78;;;19.55;52.61
6567;BME280;3317;43.994;22.878;2023-07-28T04:03:21;100982.16;;;19.58;52.14
6567;BME280;3317;43.994;22.878;2023-07-28T04:05:48;100987.25;;;19.61;52.97
6567;BME280;3317;43.994;22.878;2023-07-28T04:08:15;100985.75;;;19.65;53.13
6567;BME280;3317;43.994;22.878;2023-07-28T04:10:42;100985.78;;;19.72;53.31
6567;BME280;3317;43.994;22.878;2023-07-28T04:13:09;100982.63;;;19.75;53.29
6567;BME280;3317;43.994;22.878;2023-07-28T04:15:36;100984.31;;;19.82;53.15
6567;BME280;3317;43.994;22.878;2023-07-28T04:18:03;100982.66;;;19.88;53.12
6567;BME280;3317;43.994;22.878;2023-07-28T04:20:31;100988.19;;;19.95;52.81
6567;BME280;3317;43.994;22.878;2023-07-28T04:22:58;100995.78;;;20.06;52.65
6567;BME280;3317;43.994;22.878;2023-07-28T04:25:25;100993.88;;;20.14;52.55
6567;BME280;3317;43.994;22.878;2023-07-28T04:27:52;100990.72;;;20.23;52.37
6567;BME280;3317;43.994;22.878;2023-07-28T04:30:20;100987.53;;;20.33;54.27
6567;BME280;3317;43.994;22.878;2023-07-28T04:32:47;100988.97;;;20.49;54.41
6567;BME280;3317;43.994;22.878;2023-07-28T04:35:13;100982.19;;;20.65;53.54
6567;BME280;3317;43.994;22.878;2023-07-28T04:37:42;100983.22;;;20.78;52.57
6567;BME280;3317;43.994;22.878;2023-07-28T04:40:10;100983.41;;;20.90;52.29
6567;BME280;3317;43.994;22.878;2023-07-28T04:42:37;100988.66;;;21.05;51.30
6567;BME280;3317;43.994;22.878;2023-07-28T04:45:05;100981.22;;;21.12;51.05
6567;BME280;3317;43.994;22.878;2023-07-28T04:47:32;100985.63;;;21.27;50.59
6567;BME280;3317;43.994;22.878;2023-07-28T04:49:59;100983.84;;;21.39;50.17
6567;BME280;3317;43.994;22.878;2023-07-28T04:52:26;100982.91;;;21.52;49.72
6567;BME280;3317;43.994;22.878;2023-07-28T04:54:54;100972.25;;;21.62;49.33
6567;BME280;3317;43.994;22.878;2023-07-28T04:57:21;100975.16;;;21.74;48.83
6567;BME280;3317;43.994;22.878;2023-07-28T04:59:48;100969.38;;;21.83;48.44
6567;BME280;3317;43.994;22.878;2023-07-28T05:02:15;100979.50;;;21.96;48.13
6567;BME280;3317;43.994;22.878;2023-07-28T05:04:42;100973.91;;;22.02;47.86
6567;BME280;3317;43.994;22.878;2023-07-28T05:07:09;100965.13;;;22.12;47.79
6567;BME280;3317;43.994;22.878;2023-07-28T05:09:35;100968.44;;;22.21;47.35
6567;BME280;3317;43.994;22.878;2023-07-28T05:12:05;100938.22;;;22.07;46.90
6567;BME280;3317;43.994;22.878;2023-07-28T05:14:32;100977.75;;;22.45;47.12
6567;BME280;3317;43.994;22.878;2023-07-28T05:16:59;100969.84;;;22.56;46.57
6567;BME280;3317;43.994;22.878;2023-07-28T05:19:26;100977.16;;;22.69;45.76
6567;BME280;3317;43.994;22.878;2023-07-28T05:21:53;100972.56;;;22.81;45.41
6567;BME280;3317;43.994;22.878;2023-07-28T05:24:20;100968.56;;;22.96;45.17
6567;BME280;3317;43.994;22.878;2023-07-28T05:26:47;100968.84;;;23.06;45.03
6567;BME280;3317;43.994;22.878;2023-07-28T05:29:15;100961.38;;;23.25;44.46
6567;BME280;3317;43.994;22.878;2023-07-28T05:31:42;100956.78;;;23.38;44.51
6567;BME280;3317;43.994;22.878;2023-07-28T05:34:09;100967.88;;;23.49;44.00
6567;BME280;3317;43.994;22.878;2023-07-28T05:36:37;100960.31;;;23.57;43.61
6567;BME280;3317;43.994;22.878;2023-07-28T05:39:04;100965.66;;;23.70;43.62
6567;BME280;3317;43.994;22.878;2023-07-28T05:41:31;100964.47;;;23.78;43.28
6567;BME280;3317;43.994;22.878;2023-07-28T05:43:58;100948.97;;;23.89;42.88
6567;BME280;3317;43.994;22.878;2023-07-28T05:46:26;100954.56;;;24.13;43.04
6567;BME280;3317;43.994;22.878;2023-07-28T05:48:54;100954.69;;;24.30;43.04
6567;BME280;3317;43.994;22.878;2023-07-28T05:51:21;100946.72;;;24.45;43.69
6567;BME280;3317;43.994;22.878;2023-07-28T05:53:48;100962.50;;;24.45;43.60
6567;BME280;3317;43.994;22.878;2023-07-28T05:56:16;100943.50;;;24.37;43.06
6567;BME280;3317;43.994;22.878;2023-07-28T05:58:43;100947.78;;;24.56;43.17
6567;BME280;3317;43.994;22.878;2023-07-28T06:01:10;100951.66;;;24.79;43.04
6567;BME280;3317;43.994;22.878;2023-07-28T06:03:39;100950.13;;;25.00;43.92
6567;BME280;3317;43.994;22.878;2023-07-28T06:06:06;100950.66;;;25.26;43.41
6567;BME280;3317;43.994;22.878;2023-07-28T06:08:32;100942.13;;;25.45;43.33
6567;BME280;3317;43.994;22.878;2023-07-28T06:10:59;100946.47;;;25.70;43.80
6567;BME280;3317;43.994;22.878;2023-07-28T06:13:28;100942.38;;;25.90;42.96
6567;BME280;3317;43.994;22.878;2023-07-28T06:15:55;100949.09;;;26.11;43.61
6567;BME280;3317;43.994;22.878;2023-07-28T06:18:23;100946.00;;;26.24;42.49
6567;BME280;3317;43.994;22.878;2023-07-28T06:20:52;100922.94;;;26.24;42.23
6567;BME280;3317;43.994;22.878;2023-07-28T06:23:19;100943.97;;;26.59;41.31
6567;BME280;3317;43.994;22.878;2023-07-28T06:25:45;100949.50;;;26.76;41.11
6567;BME280;3317;43.994;22.878;2023-07-28T06:28:12;100951.91;;;26.90;40.70
6567;BME280;3317;43.994;22.878;2023-07-28T06:30:40;100950.41;;;27.04;40.25
6567;BME280;3317;43.994;22.878;2023-07-28T06:33:07;100896.38;;;26.95;40.40
6567;BME280;3317;43.994;22.878;2023-07-28T06:35:34;100950.91;;;27.46;39.87
6567;BME280;3317;43.994;22.878;2023-07-28T06:38:03;100948.59;;;27.65;39.69
6567;BME280;3317;43.994;22.878;2023-07-28T06:40:30;100955.75;;;27.88;41.17
6567;BME280;3317;43.994;22.878;2023-07-28T06:42:57;100958.91;;;28.02;40.77
6567;BME280;3317;43.994;22.878;2023-07-28T06:45:24;100960.53;;;28.25;41.02
6567;BME280;3317;43.994;22.878;2023-07-28T06:47:51;100953.69;;;28.44;40.17
6567;BME280;3317;43.994;22.878;2023-07-28T06:50:18;100951.28;;;28.63;39.28
6567;BME280;3317;43.994;22.878;2023-07-28T06:52:45;100950.50;;;28.78;38.26
6567;BME280;3317;43.994;22.878;2023-07-28T06:55:15;100956.75;;;28.47;36.52
6567;BME280;3317;43.994;22.878;2023-07-28T06:57:42;100953.72;;;28.54;38.02
6567;BME280;3317;43.994;22.878;2023-07-28T07:00:10;100960.22;;;28.70;37.73
6567;BME280;3317;43.994;22.878;2023-07-28T07:02:37;100952.72;;;28.76;37.50
6567;BME280;3317;43.994;22.878;2023-07-28T07:05:05;100950.34;;;29.00;38.65
6567;BME280;3317;43.994;22.878;2023-07-28T07:07:32;100957.09;;;29.15;38.20
6567;BME280;3317;43.994;22.878;2023-07-28T07:09:59;100955.78;;;29.43;38.30
6567;BME280;3317;43.994;22.878;2023-07-28T07:12:27;100959.44;;;29.54;36.17
6567;BME280;3317;43.994;22.878;2023-07-28T07:14:54;100969.50;;;29.71;37.11
6567;BME280;3317;43.994;22.878;2023-07-28T07:17:21;100972.31;;;29.86;36.40
6567;BME280;3317;43.994;22.878;2023-07-28T07:19:48;100965.63;;;30.08;36.33
6567;BME280;3317;43.994;22.878;2023-07-28T07:22:15;100969.50;;;30.38;37.45
6567;BME280;3317;43.994;22.878;2023-07-28T07:24:43;100963.88;;;30.48;35.12
6567;BME280;3317;43.994;22.878;2023-07-28T07:27:10;100967.78;;;30.58;33.71
6567;BME280;3317;43.994;22.878;2023-07-28T07:29:40;100973.09;;;30.70;33.58
6567;BME280;3317;43.994;22.878;2023-07-28T07:32:08;100966.91;;;30.73;33.83
6567;BME280;3317;43.994;22.878;2023-07-28T07:34:36;100974.72;;;30.81;33.33
6567;BME280;3317;43.994;22.878;2023-07-28T07:37:04;100971.63;;;30.88;31.92
6567;BME280;3317;43.994;22.878;2023-07-28T07:39:31;100975.50;;;30.92;31.44
6567;BME280;3317;43.994;22.878;2023-07-28T07:41:59;100975.25;;;30.94;31.07
6567;BME280;3317;43.994;22.878;2023-07-28T07:44:27;100967.16;;;30.87;28.62
6567;BME280;3317;43.994;22.878;2023-07-28T07:46:55;100971.31;;;30.95;28.93
6567;BME280;3317;43.994;22.878;2023-07-28T07:49:22;100968.59;;;30.79;28.20
6567;BME280;3317;43.994;22.878;2023-07-28T07:51:50;100964.31;;;30.92;28.88
6567;BME280;3317;43.994;22.878;2023-07-28T07:54:17;100968.44;;;31.15;29.56
6567;BME280;3317;43.994;22.878;2023-07-28T07:56:44;100964.72;;;31.20;28.55
6567;BME280;3317;43.994;22.878;2023-07-28T07:59:12;100974.94;;;31.00;27.88
6567;BME280;3317;43.994;22.878;2023-07-28T08:01:39;100971.59;;;30.93;27.82
6567;BME280;3317;43.994;22.878;2023-07-28T08:04:08;100974.25;;;31.19;28.08
6567;BME280;3317;43.994;22.878;2023-07-28T08:06:36;100968.63;;;31.29;27.24
6567;BME280;3317;43.994;22.878;2023-07-28T08:09:04;100961.97;;;31.15;27.58
6567;BME280;3317;43.994;22.878;2023-07-28T08:11:31;100968.44;;;31.10;26.68
6567;BME280;3317;43.994;22.878;2023-07-28T08:13:58;100958.09;;;31.11;26.58
6567;BME280;3317;43.994;22.878;2023-07-28T08:16:25;100958.28;;;31.30;25.94
6567;BME280;3317;43.994;22.878;2023-07-28T08:18:52;100953.19;;;31.37;25.29
6567;BME280;3317;43.994;22.878;2023-07-28T08:21:20;100957.09;;;31.81;27.12
6567;BME280;3317;43.994;22.878;2023-07-28T08:23:48;100945.63;;;32.12;26.79
6567;BME280;3317;43.994;22.878;2023-07-28T08:26:15;100956.47;;;32.49;25.78
6567;BME280;3317;43.994;22.878;2023-07-28T08:28:41;100949.88;;;32.64;24.09
6567;BME280;3317;43.994;22.878;2023-07-28T08:31:08;100957.44;;;32.87;24.45
6567;BME280;3317;43.994;22.878;2023-07-28T08:33:35;100952.19;;;33.24;27.51
6567;BME280;3317;43.994;22.878;2023-07-28T08:36:03;100957.81;;;33.63;27.44
6567;BME280;3317;43.994;22.878;2023-07-28T08:38:31;100951.88;;;33.83;26.49
6567;BME280;3317;43.994;22.878;2023-07-28T08:40:58;100949.84;;;34.03;26.58
6567;BME280;3317;43.994;22.878;2023-07-28T08:43:25;100942.41;;;34.40;26.15
6567;BME280;3317;43.994;22.878;2023-07-28T08:45:53;100936.72;;;34.60;26.40
6567;BME280;3317;43.994;22.878;2023-07-28T08:48:20;100937.63;;;34.83;25.35
6567;BME280;3317;43.994;22.878;2023-07-28T08:50:47;100942.94;;;34.85;25.42
6567;BME280;3317;43.994;22.878;2023-07-28T08:53:14;100943.06;;;34.79;25.76
6567;BME280;3317;43.994;22.878;2023-07-28T08:55:43;100941.81;;;34.86;25.07
6567;BME280;3317;43.994;22.878;2023-07-28T08:58:17;100942.38;;;35.24;25.18
6567;BME280;3317;43.994;22.878;2023-07-28T09:00:46;100938.00;;;35.18;23.86
6567;BME280;3317;43.994;22.878;2023-07-28T09:03:14;100944.63;;;35.36;24.49
6567;BME280;3317;43.994;22.878;2023-07-28T09:05:42;100938.34;;;35.54;24.89
6567;BME280;3317;43.994;22.878;2023-07-28T09:08:10;100924.97;;;35.59;23.45
6567;BME280;3317;43.994;22.878;2023-07-28T09:10:45;100935.53;;;35.76;23.95
6567;BME280;3317;43.994;22.878;2023-07-28T09:13:15;100933.50;;;36.00;23.09
6567;BME280;3317;43.994;22.878;2023-07-28T09:15:43;100917.91;;;35.71;20.65
6567;BME280;3317;43.994;22.878;2023-07-28T09:18:11;100923.59;;;35.79;23.06
6567;BME280;3317;43.994;22.878;2023-07-28T09:20:40;100922.19;;;35.91;23.10
6567;BME280;3317;43.994;22.878;2023-07-28T09:23:10;100925.78;;;36.05;23.47
6567;BME280;3317;43.994;22.878;2023-07-28T09:25:37;100921.28;;;36.36;22.86
6567;BME280;3317;43.994;22.878;2023-07-28T09:28:06;100914.50;;;36.46;21.76
6567;BME280;3317;43.994;22.878;2023-07-28T09:30:47;100910.75;;;36.59;21.84
6567;BME280;3317;43.994;22.878;2023-07-28T09:33:28;100909.59;;;36.69;22.63
6567;BME280;3317;43.994;22.878;2023-07-28T09:35:55;100900.00;;;36.79;22.28
6567;BME280;3317;43.994;22.878;2023-07-28T09:38:24;100894.19;;;36.84;21.25
6567;BME280;3317;43.994;22.878;2023-07-28T09:40:54;100899.34;;;36.73;21.91
6567;BME280;3317;43.994;22.878;2023-07-28T09:43:22;100903.63;;;36.71;21.59
6567;BME280;3317;43.994;22.878;2023-07-28T09:45:49;100894.00;;;36.72;22.42
6567;BME280;3317;43.994;22.878;2023-07-28T09:48:17;100901.19;;;36.78;22.14
6567;BME280;3317;43.994;22.878;2023-07-28T09:50:45;100888.91;;;37.00;23.16
6567;BME280;3317;43.994;22.878;2023-07-28T09:53:13;100873.50;;;37.24;20.96
6567;BME280;3317;43.994;22.878;2023-07-28T09:55:41;100888.41;;;37.33;21.60
6567;BME280;3317;43.994;22.878;2023-07-28T09:58:10;100888.09;;;37.26;19.89
6567;BME280;3317;43.994;22.878;2023-07-28T10:00:40;100874.31;;;37.25;20.15
6567;BME280;3317;43.994;22.878;2023-07-28T10:03:08;100880.78;;;37.52;21.65
6567;BME280;3317;43.994;22.878;2023-07-28T10:05:35;100874.59;;;37.50;20.26
6567;BME280;3317;43.994;22.878;2023-07-28T10:08:04;100869.28;;;37.48;20.24
6567;BME280;3317;43.994;22.878;2023-07-28T10:10:32;100871.13;;;37.61;21.74
6567;BME280;3317;43.994;22.878;2023-07-28T10:12:59;100874.41;;;37.81;20.95
6567;BME280;3317;43.994;22.878;2023-07-28T10:15:30;100864.06;;;37.94;21.44
6567;BME280;3317;43.994;22.878;2023-07-28T10:17:59;100855.47;;;37.73;20.75
6567;BME280;3317;43.994;22.878;2023-07-28T10:20:30;100865.56;;;37.92;21.76
6567;BME280;3317;43.994;22.878;2023-07-28T10:23:04;100859.41;;;37.89;20.23
6567;BME280;3317;43.994;22.878;2023-07-28T10:25:34;100855.06;;;37.92;20.26
6567;BME280;3317;43.994;22.878;2023-07-28T10:28:02;100856.97;;;38.18;21.41
6567;BME280;3317;43.994;22.878;2023-07-28T10:30:35;100852.50;;;38.17;20.09
6567;BME280;3317;43.994;22.878;2023-07-28T10:33:04;100851.91;;;38.32;20.41
6567;BME280;3317;43.994;22.878;2023-07-28T10:35:31;100849.16;;;38.45;20.14
6567;BME280;3317;43.994;22.878;2023-07-28T10:38:30;100842.16;;;38.21;19.58
6567;BME280;3317;43.994;22.878;2023-07-28T10:41:09;100839.09;;;38.35;20.64
6567;BME280;3317;43.994;22.878;2023-07-28T10:43:37;100839.34;;;38.51;20.17
6567;BME280;3317;43.994;22.878;2023-07-28T10:46:06;100832.19;;;38.45;19.46
6567;BME280;3317;43.994;22.878;2023-07-28T10:48:36;100829.19;;;38.50;20.20
6567;BME280;3317;43.994;22.878;2023-07-28T10:51:03;100817.97;;;38.63;20.48
6567;BME280;3317;43.994;22.878;2023-07-28T10:53:32;100815.91;;;38.42;19.58
6567;BME280;3317;43.994;22.878;2023-07-28T10:56:01;100805.06;;;38.53;19.75
6567;BME280;3317;43.994;22.878;2023-07-28T10:58:28;100820.03;;;38.74;19.42
6567;BME280;3317;43.994;22.878;2023-07-28T11:00:55;100817.00;;;38.80;19.37
6567;BME280;3317;43.994;22.878;2023-07-28T11:03:23;100797.03;;;38.76;19.08
6567;BME280;3317;43.994;22.878;2023-07-28T11:05:51;100810.63;;;38.83;19.42
6567;BME280;3317;43.994;22.878;2023-07-28T11:08:22;100793.19;;;38.59;19.50
6567;BME280;3317;43.994;22.878;2023-07-28T11:10:49;100802.22;;;38.53;19.04
6567;BME280;3317;43.994;22.878;2023-07-28T11:13:16;100801.81;;;38.33;19.79
6567;BME280;3317;43.994;22.878;2023-07-28T11:15:43;100804.00;;;38.27;19.91
6567;BME280;3317;43.994;22.878;2023-07-28T11:18:10;100798.13;;;38.32;20.13
6567;BME280;3317;43.994;22.878;2023-07-28T11:20:37;100787.44;;;38.17;19.61
6567;BME280;3317;43.994;22.878;2023-07-28T11:23:05;100786.13;;;37.75;20.56
6567;BME280;3317;43.994;22.878;2023-07-28T11:25:34;100776.66;;;37.71;20.75
6567;BME280;3317;43.994;22.878;2023-07-28T11:28:02;100779.88;;;37.43;20.97
6567;BME280;3317;43.994;22.878;2023-07-28T11:30:32;100775.09;;;37.35;21.07
6567;BME280;3317;43.994;22.878;2023-07-28T11:33:03;100769.44;;;37.35;20.76
6567;BME280;3317;43.994;22.878;2023-07-28T11:35:30;100761.78;;;37.44;21.28
6567;BME280;3317;43.994;22.878;2023-07-28T11:37:57;100765.91;;;37.47;20.98
6567;BME280;3317;43.994;22.878;2023-07-28T11:40:25;100758.25;;;37.47;20.88
6567;BME280;3317;43.994;22.878;2023-07-28T11:42:54;100764.88;;;37.60;21.22
6567;BME280;3317;43.994;22.878;2023-07-28T11:45:22;100749.69;;;37.74;21.12
6567;BME280;3317;43.994;22.878;2023-07-28T11:47:56;100746.88;;;37.74;20.98
6567;BME280;3317;43.994;22.878;2023-07-28T11:50:25;100740.63;;;37.51;21.40
6567;BME280;3317;43.994;22.878;2023-07-28T11:52:52;100746.03;;;37.17;21.34
6567;BME280;3317;43.994;22.878;2023-07-28T11:55:20;100742.50;;;37.29;21.51
6567;BME280;3317;43.994;22.878;2023-07-28T11:57:49;100729.72;;;37.31;21.46
6567;BME280;3317;43.994;22.878;2023-07-28T12:00:16;100732.69;;;37.35;21.46
6567;BME280;3317;43.994;22.878;2023-07-28T12:02:44;100731.84;;;37.52;21.35
6567;BME280;3317;43.994;22.878;2023-07-28T12:05:14;100688.38;;;37.18;21.52
6567;BME280;3317;43.994;22.878;2023-07-28T12:07:41;100725.38;;;37.43;21.84
6567;BME280;3317;43.994;22.878;2023-07-28T12:10:13;100716.56;;;37.53;21.40
6567;BME280;3317;43.994;22.878;2023-07-28T12:12:42;100696.28;;;37.42;21.10
6567;BME280;3317;43.994;22.878;2023-07-28T12:15:25;100717.50;;;37.57;21.30
6567;BME280;3317;43.994;22.878;2023-07-28T12:18:06;100710.00;;;37.61;21.31
6567;BME280;3317;43.994;22.878;2023-07-28T12:20:35;100710.84;;;37.62;21.54
6567;BME280;3317;43.994;22.878;2023-07-28T12:23:03;100711.56;;;37.50;21.81
6567;BME280;3317;43.994;22.878;2023-07-28T12:25:30;100700.09;;;37.46;21.78
6567;BME280;3317;43.994;22.878;2023-07-28T12:27:58;100703.78;;;37.38;21.70
6567;BME280;3317;43.994;22.878;2023-07-28T12:30:27;100705.50;;;37.22;21.15
6567;BME280;3317;43.994;22.878;2023-07-28T12:32:54;100701.81;;;37.21;21.82
6567;BME280;3317;43.994;22.878;2023-07-28T12:35:22;100697.72;;;37.10;21.68
6567;BME280;3317;43.994;22.878;2023-07-28T12:37:50;100695.22;;;36.99;21.45
6567;BME280;3317;43.994;22.878;2023-07-28T12:40:17;100681.47;;;36.89;21.96
6567;BME280;3317;43.994;22.878;2023-07-28T12:42:46;100694.28;;;36.60;22.19
6567;BME280;3317;43.994;22.878;2023-07-28T12:45:13;100688.59;;;36.51;22.65
6567;BME280;3317;43.994;22.878;2023-07-28T12:47:42;100688.94;;;36.32;22.80
6567;BME280;3317;43.994;22.878;2023-07-28T12:50:09;100689.09;;;36.18;22.99
6567;BME280;3317;43.994;22.878;2023-07-28T12:52:36;100675.59;;;35.97;23.49
6567;BME280;3317;43.994;22.878;2023-07-28T12:55:04;100676.22;;;35.68;23.19
6567;BME280;3317;43.994;22.878;2023-07-28T12:57:31;100668.13;;;35.43;23.50
6567;BME280;3317;43.994;22.878;2023-07-28T12:59:58;100670.78;;;34.85;24.06
6567;BME280;3317;43.994;22.878;2023-07-28T13:02:25;100673.03;;;34.51;24.96
6567;BME280;3317;43.994;22.878;2023-07-28T13:04:54;100678.88;;;34.41;25.01